sensor_id;sensor_type;location;lat;lon;timestamp;P1;durP1;ratioP1;P2;durP2;ratioP2
29854;SDS011;16733;48.738;9.106;2022-12-20T00:00:02;9.00;;;5.40;;
29854;SDS011;16733;48.738;9.106;2022-12-20T00:02:29;9.30;;;4.53;;
29854;SDS011;16733;48.738;9.106;2022-12-20T00:04:54;11.75;;;4.82;;
29854;SDS011;16733;48.738;9.106;2022-12-20T00:07:20;7.25;;;4.00;;
29854;SDS011;16733;48.738;9.106;2022-12-20T00:09:45;7.57;;;4.07;;
29854;SDS011;16733;48.738;9.106;2022-12-20T00:12:11;7.38;;;3.97;;
29854;SDS011;16733;48.738;9.106;2022-12-20T00:14:36;8.95;;;4.25;;
29854;SDS011;16733;48.738;9.106;2022-12-20T00:17:02;9.43;;;4.03;;
29854;SDS011;16733;48.738;9.106;2022-12-20T00:19:28;8.48;;;4.28;;
29854;SDS011;16733;48.738;9.106;2022-12-20T00:21:53;8.02;;;3.95;;
29854;SDS011;16733;48.738;9.106;2022-12-20T00:24:19;6.90;;;3.60;;
29854;SDS011;16733;48.738;9.106;2022-12-20T00:26:44;7.95;;;4.18;;
29854;SDS011;16733;48.738;9.106;2022-12-20T00:29:10;8.80;;;4.18;;
29854;SDS011;16733;48.738;9.106;2022-12-20T00:31:36;6.78;;;3.97;;
29854;SDS011;16733;48.738;9.106;2022-12-20T00:34:01;7.00;;;4.05;;
29854;SDS011;16733;48.738;9.106;2022-12-20T00:36:28;7.45;;;4.28;;
29854;SDS011;16733;48.738;9.106;2022-12-20T00:38:55;6.75;;;3.92;;
29854;SDS011;16733;48.738;9.106;2022-12-20T00:41:22;6.32;;;4.00;;
29854;SDS011;16733;48.738;9.106;2022-12-20T00:43:51;9.73;;;4.25;;
29854;SDS011;16733;48.738;9.106;2022-12-20T00:46:17;8.40;;;4.15;;
29854;SDS011;16733;48.738;9.106;2022-12-20T00:48:44;8.27;;;4.00;;
29854;SDS011;16733;48.738;9.106;2022-12-20T00:51:14;7.28;;;4.47;;
29854;SDS011;16733;48.738;9.106;2022-12-20T00:53:42;5.97;;;4.50;;
29854;SDS011;16733;48.738;9.106;2022-12-20T00:56:08;10.07;;;5.03;;
29854;SDS011;16733;48.738;9.106;2022-12-20T00:58:36;8.05;;;4.88;;
29854;SDS011;16733;48.738;9.106;2022-12-20T01:01:04;8.40;;;5.47;;
29854;SDS011;16733;48.738;9.106;2022-12-20T01:03:31;7.65;;;4.10;;
29854;SDS011;16733;48.738;9.106;2022-12-20T01:06:00;9.15;;;5.47;;
29854;SDS011;16733;48.738;9.106;2022-12-20T01:08:27;10.13;;;4.88;;
29854;SDS011;16733;48.738;9.106;2022-12-20T01:10:57;15.13;;;4.75;;
29854;SDS011;16733;48.738;9.106;2022-12-20T01:13:43;10.48;;;5.55;;
29854;SDS011;16733;48.738;9.106;2022-12-20T01:16:13;11.07;;;5.63;;
29854;SDS011;16733;48.738;9.106;2022-12-20T01:18:41;8.77;;;4.78;;
29854;SDS011;16733;48.738;9.106;2022-12-20T01:21:08;9.52;;;5.00;;
29854;SDS011;16733;48.738;9.106;2022-12-20T01:23:36;11.32;;;5.53;;
29854;SDS011;16733;48.738;9.106;2022-12-20T01:26:03;9.23;;;4.78;;
29854;SDS011;16733;48.738;9.106;2022-12-20T01:28:33;8.25;;;4.30;;
29854;SDS011;16733;48.738;9.106;2022-12-20T01:31:00;8.55;;;5.10;;
29854;SDS011;16733;48.738;9.106;2022-12-20T01:33:26;8.75;;;5.03;;
29854;SDS011;16733;48.738;9.106;2022-12-20T01:35:55;8.52;;;5.00;;
29854;SDS011;16733;48.738;9.106;2022-12-20T01:38:22;8.25;;;4.53;;
29854;SDS011;16733;48.738;9.106;2022-12-20T01:40:48;9.27;;;5.00;;
29854;SDS011;16733;48.738;9.106;2022-12-20T01:43:13;10.00;;;4.75;;
29854;SDS011;16733;48.738;9.106;2022-12-20T01:45:41;8.07;;;4.88;;
29854;SDS011;16733;48.738;9.106;2022-12-20T01:48:07;8.40;;;4.32;;
29854;SDS011;16733;48.738;9.106;2022-12-20T01:50:33;10.05;;;5.35;;
29854;SDS011;16733;48.738;9.106;2022-12-20T01:52:59;8.77;;;5.43;;
29854;SDS011;16733;48.738;9.106;2022-12-20T01:55:28;9.85;;;5.95;;
29854;SDS011;16733;48.738;9.106;2022-12-20T01:57:56;11.23;;;5.85;;
29854;SDS011;16733;48.738;9.106;2022-12-20T02:00:31;9.45;;;4.85;;
29854;SDS011;16733;48.738;9.106;2022-12-20T02:03:00;10.65;;;5.50;;
29854;SDS011;16733;48.738;9.106;2022-12-20T02:05:34;11.00;;;5.45;;
29854;SDS011;16733;48.738;9.106;2022-12-20T02:08:02;11.20;;;6.65;;
29854;SDS011;16733;48.738;9.106;2022-12-20T02:10:57;11.57;;;6.05;;
29854;SDS011;16733;48.738;9.106;2022-12-20T02:13:30;15.75;;;7.72;;
29854;SDS011;16733;48.738;9.106;2022-12-20T02:16:08;12.18;;;6.50;;
29854;SDS011;16733;48.738;9.106;2022-12-20T02:18:47;14.75;;;7.05;;
29854;SDS011;16733;48.738;9.106;2022-12-20T02:21:31;12.13;;;7.15;;
29854;SDS011;16733;48.738;9.106;2022-12-20T02:29:57;13.88;;;7.63;;
29854;SDS011;16733;48.738;9.106;2022-12-20T02:32:58;14.90;;;7.38;;
29854;SDS011;16733;48.738;9.106;2022-12-20T02:35:28;15.32;;;8.18;;
29854;SDS011;16733;48.738;9.106;2022-12-20T02:37:57;18.00;;;7.80;;
29854;SDS011;16733;48.738;9.106;2022-12-20T02:40:36;16.23;;;7.35;;
29854;SDS011;16733;48.738;9.106;2022-12-20T02:43:06;13.88;;;6.82;;
29854;SDS011;16733;48.738;9.106;2022-12-20T02:45:53;12.68;;;7.57;;
29854;SDS011;16733;48.738;9.106;2022-12-20T02:48:22;18.05;;;8.30;;
29854;SDS011;16733;48.738;9.106;2022-12-20T02:50:50;19.20;;;9.38;;
29854;SDS011;16733;48.738;9.106;2022-12-20T02:53:18;15.30;;;7.60;;
29854;SDS011;16733;48.738;9.106;2022-12-20T02:55:58;18.42;;;8.35;;
29854;SDS011;16733;48.738;9.106;2022-12-20T02:58:37;17.80;;;8.77;;
29854;SDS011;16733;48.738;9.106;2022-12-20T03:01:13;16.63;;;8.25;;
29854;SDS011;16733;48.738;9.106;2022-12-20T03:03:45;15.10;;;7.30;;
29854;SDS011;16733;48.738;9.106;2022-12-20T03:06:12;16.88;;;9.38;;
29854;SDS011;16733;48.738;9.106;2022-12-20T03:08:37;14.13;;;7.43;;
29854;SDS011;16733;48.738;9.106;2022-12-20T03:11:03;15.52;;;7.85;;
29854;SDS011;16733;48.738;9.106;2022-12-20T03:13:29;13.65;;;7.90;;
29854;SDS011;16733;48.738;9.106;2022-12-20T03:15:54;16.67;;;8.88;;
29854;SDS011;16733;48.738;9.106;2022-12-20T03:18:20;15.70;;;7.35;;
29854;SDS011;16733;48.738;9.106;2022-12-20T03:20:45;15.15;;;8.10;;
29854;SDS011;16733;48.738;9.106;2022-12-20T03:23:11;13.60;;;7.05;;
29854;SDS011;16733;48.738;9.106;2022-12-20T03:25:37;11.95;;;6.10;;
29854;SDS011;16733;48.738;9.106;2022-12-20T03:28:02;10.68;;;5.72;;
29854;SDS011;16733;48.738;9.106;2022-12-20T03:30:28;10.60;;;6.07;;
29854;SDS011;16733;48.738;9.106;2022-12-20T03:32:54;13.20;;;6.70;;
29854;SDS011;16733;48.738;9.106;2022-12-20T03:35:20;9.75;;;5.22;;
29854;SDS011;16733;48.738;9.106;2022-12-20T03:37:45;11.10;;;4.90;;
29854;SDS011;16733;48.738;9.106;2022-12-20T03:40:11;8.02;;;5.00;;
29854;SDS011;16733;48.738;9.106;2022-12-20T03:42:37;11.40;;;4.05;;
29854;SDS011;16733;48.738;9.106;2022-12-20T03:45:03;9.48;;;3.55;;
29854;SDS011;16733;48.738;9.106;2022-12-20T03:47:29;5.82;;;3.50;;
29854;SDS011;16733;48.738;9.106;2022-12-20T03:49:54;3.33;;;2.08;;
29854;SDS011;16733;48.738;9.106;2022-12-20T03:52:20;4.03;;;2.55;;
29854;SDS011;16733;48.738;9.106;2022-12-20T03:54:46;5.38;;;2.33;;
29854;SDS011;16733;48.738;9.106;2022-12-20T03:57:11;4.30;;;2.40;;
29854;SDS011;16733;48.738;9.106;2022-12-20T03:59:37;5.07;;;2.20;;
29854;SDS011;16733;48.738;9.106;2022-12-20T04:02:03;3.65;;;2.25;;
29854;SDS011;16733;48.738;9.106;2022-12-20T04:04:28;3.10;;;2.17;;
29854;SDS011;16733;48.738;9.106;2022-12-20T04:06:54;5.03;;;3.03;;
29854;SDS011;16733;48.738;9.106;2022-12-20T04:09:20;7.25;;;4.25;;
29854;SDS011;16733;48.738;9.106;2022-12-20T04:11:45;5.90;;;3.63;;
29854;SDS011;16733;48.738;9.106;2022-12-20T04:14:11;6.95;;;3.25;;
29854;SDS011;16733;48.738;9.106;2022-12-20T04:16:37;7.63;;;3.95;;
29854;SDS011;16733;48.738;9.106;2022-12-20T04:19:02;7.53;;;4.13;;
29854;SDS011;16733;48.738;9.106;2022-12-20T04:21:29;6.53;;;3.65;;
29854;SDS011;16733;48.738;9.106;2022-12-20T04:23:56;5.15;;;3.42;;
29854;SDS011;16733;48.738;9.106;2022-12-20T04:26:23;9.05;;;3.90;;
29854;SDS011;16733;48.738;9.106;2022-12-20T04:28:48;8.77;;;3.80;;
29854;SDS011;16733;48.738;9.106;2022-12-20T04:31:14;6.53;;;3.78;;
29854;SDS011;16733;48.738;9.106;2022-12-20T04:33:39;7.85;;;3.72;;
29854;SDS011;16733;48.738;9.106;2022-12-20T04:36:05;6.85;;;3.35;;
29854;SDS011;16733;48.738;9.106;2022-12-20T04:38:31;7.45;;;3.85;;
29854;SDS011;16733;48.738;9.106;2022-12-20T04:40:57;4.53;;;2.65;;
29854;SDS011;16733;48.738;9.106;2022-12-20T04:43:23;4.25;;;2.45;;
29854;SDS011;16733;48.738;9.106;2022-12-20T04:45:49;4.80;;;2.88;;
29854;SDS011;16733;48.738;9.106;2022-12-20T04:48:16;5.43;;;2.45;;
29854;SDS011;16733;48.738;9.106;2022-12-20T04:50:46;4.22;;;2.25;;
29854;SDS011;16733;48.738;9.106;2022-12-20T04:53:14;4.88;;;2.53;;
29854;SDS011;16733;48.738;9.106;2022-12-20T04:55:59;4.45;;;2.20;;
29854;SDS011;16733;48.738;9.106;2022-12-20T04:58:25;4.50;;;2.20;;
29854;SDS011;16733;48.738;9.106;2022-12-20T05:00:50;5.40;;;2.67;;
29854;SDS011;16733;48.738;9.106;2022-12-20T05:03:16;5.00;;;2.85;;
29854;SDS011;16733;48.738;9.106;2022-12-20T05:05:43;7.28;;;3.78;;
29854;SDS011;16733;48.738;9.106;2022-12-20T05:08:08;9.25;;;4.03;;
29854;SDS011;16733;48.738;9.106;2022-12-20T05:10:34;6.28;;;3.80;;
29854;SDS011;16733;48.738;9.106;2022-12-20T05:12:59;7.10;;;3.83;;
29854;SDS011;16733;48.738;9.106;2022-12-20T05:15:25;5.15;;;3.75;;
29854;SDS011;16733;48.738;9.106;2022-12-20T05:17:51;6.32;;;3.83;;
29854;SDS011;16733;48.738;9.106;2022-12-20T05:20:16;5.80;;;3.83;;
29854;SDS011;16733;48.738;9.106;2022-12-20T05:22:42;5.35;;;2.47;;
29854;SDS011;16733;48.738;9.106;2022-12-20T05:25:26;7.00;;;2.70;;
29854;SDS011;16733;48.738;9.106;2022-12-20T05:28:10;3.50;;;2.00;;
29854;SDS011;16733;48.738;9.106;2022-12-20T05:30:36;4.22;;;1.92;;
29854;SDS011;16733;48.738;9.106;2022-12-20T05:33:02;4.80;;;2.50;;
29854;SDS011;16733;48.738;9.106;2022-12-20T05:35:27;2.72;;;1.88;;
29854;SDS011;16733;48.738;9.106;2022-12-20T05:37:53;2.40;;;1.85;;
29854;SDS011;16733;48.738;9.106;2022-12-20T05:40:19;3.65;;;2.00;;
29854;SDS011;16733;48.738;9.106;2022-12-20T05:42:44;3.60;;;2.35;;
29854;SDS011;16733;48.738;9.106;2022-12-20T05:45:10;4.40;;;2.33;;
29854;SDS011;16733;48.738;9.106;2022-12-20T05:47:36;4.20;;;2.22;;
29854;SDS011;16733;48.738;9.106;2022-12-20T05:50:03;4.95;;;2.28;;
29854;SDS011;16733;48.738;9.106;2022-12-20T05:52:29;2.88;;;1.80;;
29854;SDS011;16733;48.738;9.106;2022-12-20T05:54:55;3.38;;;2.35;;
29854;SDS011;16733;48.738;9.106;2022-12-20T05:57:21;4.00;;;2.42;;
29854;SDS011;16733;48.738;9.106;2022-12-20T05:59:46;5.68;;;2.63;;
29854;SDS011;16733;48.738;9.106;2022-12-20T06:02:12;3.65;;;2.28;;
29854;SDS011;16733;48.738;9.106;2022-12-20T06:04:38;7.07;;;2.50;;
29854;SDS011;16733;48.738;9.106;2022-12-20T06:07:03;4.65;;;2.15;;
29854;SDS011;16733;48.738;9.106;2022-12-20T06:09:30;6.00;;;2.42;;
29854;SDS011;16733;48.738;9.106;2022-12-20T06:11:56;3.55;;;1.85;;
29854;SDS011;16733;48.738;9.106;2022-12-20T06:14:22;5.78;;;2.40;;
29854;SDS011;16733;48.738;9.106;2022-12-20T06:16:48;3.80;;;1.90;;
29854;SDS011;16733;48.738;9.106;2022-12-20T06:19:14;4.22;;;2.20;;
29854;SDS011;16733;48.738;9.106;2022-12-20T06:21:39;2.53;;;1.70;;
29854;SDS011;16733;48.738;9.106;2022-12-20T06:24:05;3.03;;;2.00;;
29854;SDS011;16733;48.738;9.106;2022-12-20T06:26:31;3.92;;;2.20;;
29854;SDS011;16733;48.738;9.106;2022-12-20T06:29:00;5.40;;;2.22;;
29854;SDS011;16733;48.738;9.106;2022-12-20T06:31:27;8.43;;;2.58;;
29854;SDS011;16733;48.738;9.106;2022-12-20T06:33:53;3.53;;;2.15;;
29854;SDS011;16733;48.738;9.106;2022-12-20T06:36:18;5.18;;;2.45;;
29854;SDS011;16733;48.738;9.106;2022-12-20T06:38:44;4.45;;;2.13;;
29854;SDS011;16733;48.738;9.106;2022-12-20T06:41:10;4.22;;;1.98;;
29854;SDS011;16733;48.738;9.106;2022-12-20T06:43:35;3.20;;;2.00;;
29854;SDS011;16733;48.738;9.106;2022-12-20T06:46:01;3.55;;;2.00;;
29854;SDS011;16733;48.738;9.106;2022-12-20T06:48:27;3.08;;;2.10;;
29854;SDS011;16733;48.738;9.106;2022-12-20T06:50:53;3.95;;;2.00;;
29854;SDS011;16733;48.738;9.106;2022-12-20T06:53:18;4.88;;;2.05;;
29854;SDS011;16733;48.738;9.106;2022-12-20T06:55:46;2.65;;;1.92;;
29854;SDS011;16733;48.738;9.106;2022-12-20T06:58:14;6.55;;;2.22;;
29854;SDS011;16733;48.738;9.106;2022-12-20T07:00:40;6.65;;;2.00;;
29854;SDS011;16733;48.738;9.106;2022-12-20T07:03:05;4.18;;;2.05;;
29854;SDS011;16733;48.738;9.106;2022-12-20T07:05:31;5.70;;;3.15;;
29854;SDS011;16733;48.738;9.106;2022-12-20T07:07:56;4.43;;;1.92;;
29854;SDS011;16733;48.738;9.106;2022-12-20T07:10:22;3.95;;;2.10;;
29854;SDS011;16733;48.738;9.106;2022-12-20T07:12:48;5.93;;;2.88;;
29854;SDS011;16733;48.738;9.106;2022-12-20T07:15:13;3.45;;;1.85;;
29854;SDS011;16733;48.738;9.106;2022-12-20T07:17:40;3.45;;;1.80;;
29854;SDS011;16733;48.738;9.106;2022-12-20T07:20:05;3.53;;;1.83;;
29854;SDS011;16733;48.738;9.106;2022-12-20T07:22:31;2.38;;;1.58;;
29854;SDS011;16733;48.738;9.106;2022-12-20T07:24:58;4.03;;;2.00;;
29854;SDS011;16733;48.738;9.106;2022-12-20T07:27:24;4.78;;;1.92;;
29854;SDS011;16733;48.738;9.106;2022-12-20T07:29:50;3.17;;;1.90;;
29854;SDS011;16733;48.738;9.106;2022-12-20T07:32:15;3.35;;;2.05;;
29854;SDS011;16733;48.738;9.106;2022-12-20T07:34:41;6.05;;;2.20;;
29854;SDS011;16733;48.738;9.106;2022-12-20T07:37:06;3.45;;;2.20;;
29854;SDS011;16733;48.738;9.106;2022-12-20T07:39:33;4.45;;;1.83;;
29854;SDS011;16733;48.738;9.106;2022-12-20T07:41:58;2.55;;;1.83;;
29854;SDS011;16733;48.738;9.106;2022-12-20T07:44:24;4.00;;;2.00;;
29854;SDS011;16733;48.738;9.106;2022-12-20T07:46:49;3.42;;;2.20;;
29854;SDS011;16733;48.738;9.106;2022-12-20T07:49:15;3.78;;;2.20;;
29854;SDS011;16733;48.738;9.106;2022-12-20T07:51:43;2.88;;;1.75;;
29854;SDS011;16733;48.738;9.106;2022-12-20T07:54:12;4.68;;;1.90;;
29854;SDS011;16733;48.738;9.106;2022-12-20T07:56:44;4.75;;;2.25;;
29854;SDS011;16733;48.738;9.106;2022-12-20T07:59:11;11.20;;;2.45;;
29854;SDS011;16733;48.738;9.106;2022-12-20T08:01:39;5.03;;;1.95;;
29854;SDS011;16733;48.738;9.106;2022-12-20T08:04:08;4.00;;;2.05;;
29854;SDS011;16733;48.738;9.106;2022-12-20T08:06:38;5.13;;;2.30;;
29854;SDS011;16733;48.738;9.106;2022-12-20T08:09:05;3.78;;;1.67;;
29854;SDS011;16733;48.738;9.106;2022-12-20T08:11:33;4.97;;;2.00;;
29854;SDS011;16733;48.738;9.106;2022-12-20T08:14:01;5.43;;;2.15;;
29854;SDS011;16733;48.738;9.106;2022-12-20T08:16:28;4.68;;;2.00;;
29854;SDS011;16733;48.738;9.106;2022-12-20T08:18:55;5.80;;;2.10;;
29854;SDS011;16733;48.738;9.106;2022-12-20T08:21:20;4.38;;;2.35;;
29854;SDS011;16733;48.738;9.106;2022-12-20T08:23:46;5.30;;;2.50;;
29854;SDS011;16733;48.738;9.106;2022-12-20T08:26:11;5.35;;;2.45;;
29854;SDS011;16733;48.738;9.106;2022-12-20T08:28:37;7.32;;;2.30;;
29854;SDS011;16733;48.738;9.106;2022-12-20T08:31:03;6.10;;;2.10;;
29854;SDS011;16733;48.738;9.106;2022-12-20T08:33:32;4.13;;;1.95;;
29854;SDS011;16733;48.738;9.106;2022-12-20T08:35:59;3.67;;;2.00;;
29854;SDS011;16733;48.738;9.106;2022-12-20T08:38:29;2.78;;;1.70;;
29854;SDS011;16733;48.738;9.106;2022-12-20T08:43:50;3.92;;;2.17;;
29854;SDS011;16733;48.738;9.106;2022-12-20T08:46:17;3.78;;;1.60;;
29854;SDS011;16733;48.738;9.106;2022-12-20T08:48:42;7.38;;;1.70;;
29854;SDS011;16733;48.738;9.106;2022-12-20T08:51:09;3.13;;;1.58;;
29854;SDS011;16733;48.738;9.106;2022-12-20T08:53:35;3.67;;;1.88;;
29854;SDS011;16733;48.738;9.106;2022-12-20T08:58:35;5.40;;;1.98;;
29854;SDS011;16733;48.738;9.106;2022-12-20T09:01:03;7.35;;;2.20;;
29854;SDS011;16733;48.738;9.106;2022-12-20T09:03:31;5.18;;;1.67;;
29854;SDS011;16733;48.738;9.106;2022-12-20T09:05:57;5.32;;;1.88;;
29854;SDS011;16733;48.738;9.106;2022-12-20T09:08:23;6.57;;;1.60;;
29854;SDS011;16733;48.738;9.106;2022-12-20T09:10:49;2.88;;;1.70;;
29854;SDS011;16733;48.738;9.106;2022-12-20T09:13:15;4.90;;;1.75;;
29854;SDS011;16733;48.738;9.106;2022-12-20T09:15:41;3.70;;;1.73;;
29854;SDS011;16733;48.738;9.106;2022-12-20T09:18:07;3.83;;;1.90;;
29854;SDS011;16733;48.738;9.106;2022-12-20T09:20:33;3.45;;;2.03;;
29854;SDS011;16733;48.738;9.106;2022-12-20T09:22:59;2.67;;;1.90;;
29854;SDS011;16733;48.738;9.106;2022-12-20T09:25:25;6.30;;;2.10;;
29854;SDS011;16733;48.738;9.106;2022-12-20T09:27:52;4.47;;;1.92;;
29854;SDS011;16733;48.738;9.106;2022-12-20T09:30:20;2.75;;;1.90;;
29854;SDS011;16733;48.738;9.106;2022-12-20T09:32:46;2.60;;;1.80;;
29854;SDS011;16733;48.738;9.106;2022-12-20T09:35:12;4.00;;;2.00;;
29854;SDS011;16733;48.738;9.106;2022-12-20T09:37:37;2.80;;;1.95;;
29854;SDS011;16733;48.738;9.106;2022-12-20T09:40:03;4.13;;;1.85;;
29854;SDS011;16733;48.738;9.106;2022-12-20T09:42:29;2.80;;;1.80;;
29854;SDS011;16733;48.738;9.106;2022-12-20T09:44:59;7.13;;;2.00;;
29854;SDS011;16733;48.738;9.106;2022-12-20T09:49:55;5.10;;;2.03;;
29854;SDS011;16733;48.738;9.106;2022-12-20T10:00:24;5.43;;;2.47;;
29854;SDS011;16733;48.738;9.106;2022-12-20T10:02:50;7.55;;;2.50;;
29854;SDS011;16733;48.738;9.106;2022-12-20T10:05:17;5.93;;;2.50;;
29854;SDS011;16733;48.738;9.106;2022-12-20T10:15:32;5.43;;;2.67;;
29854;SDS011;16733;48.738;9.106;2022-12-20T10:23:40;6.87;;;1.93;;
29854;SDS011;16733;48.738;9.106;2022-12-20T10:26:11;4.93;;;1.90;;
29854;SDS011;16733;48.738;9.106;2022-12-20T10:28:37;4.03;;;2.38;;
29854;SDS011;16733;48.738;9.106;2022-12-20T10:31:14;6.78;;;2.35;;
29854;SDS011;16733;48.738;9.106;2022-12-20T10:33:41;4.57;;;2.35;;
29854;SDS011;16733;48.738;9.106;2022-12-20T10:38:59;3.00;;;1.90;;
29854;SDS011;16733;48.738;9.106;2022-12-20T10:41:27;2.97;;;1.58;;
29854;SDS011;16733;48.738;9.106;2022-12-20T10:46:38;3.53;;;1.70;;
29854;SDS011;16733;48.738;9.106;2022-12-20T10:54:34;2.40;;;1.40;;
29854;SDS011;16733;48.738;9.106;2022-12-20T10:59:58;1.83;;;1.42;;
29854;SDS011;16733;48.738;9.106;2022-12-20T11:02:34;5.28;;;1.50;;
29854;SDS011;16733;48.738;9.106;2022-12-20T11:05:09;3.95;;;1.63;;
29854;SDS011;16733;48.738;9.106;2022-12-20T11:10:21;4.32;;;1.42;;
29854;SDS011;16733;48.738;9.106;2022-12-20T11:15:29;4.13;;;1.88;;
29854;SDS011;16733;48.738;9.106;2022-12-20T11:25:52;7.90;;;1.70;;
29854;SDS011;16733;48.738;9.106;2022-12-20T11:34:07;5.63;;;2.53;;
29854;SDS011;16733;48.738;9.106;2022-12-20T11:39:20;7.20;;;1.90;;
29854;SDS011;16733;48.738;9.106;2022-12-20T11:44:39;3.25;;;1.70;;
29854;SDS011;16733;48.738;9.106;2022-12-20T11:50:35;6.53;;;2.25;;
29854;SDS011;16733;48.738;9.106;2022-12-20T11:56:05;5.82;;;1.90;;
29854;SDS011;16733;48.738;9.106;2022-12-20T11:58:53;6.30;;;2.50;;
29854;SDS011;16733;48.738;9.106;2022-12-20T12:01:40;3.67;;;1.70;;
29854;SDS011;16733;48.738;9.106;2022-12-20T12:10:14;4.88;;;2.00;;
29854;SDS011;16733;48.738;9.106;2022-12-20T12:12:26;5.25;;;2.03;;
29854;SDS011;16733;48.738;9.106;2022-12-20T12:20:44;7.22;;;2.30;;
29854;SDS011;16733;48.738;9.106;2022-12-20T12:23:30;5.10;;;2.67;;
29854;SDS011;16733;48.738;9.106;2022-12-20T12:25:59;8.60;;;2.58;;
29854;SDS011;16733;48.738;9.106;2022-12-20T12:28:57;12.50;;;3.47;;
29854;SDS011;16733;48.738;9.106;2022-12-20T12:48:12;7.38;;;3.15;;
29854;SDS011;16733;48.738;9.106;2022-12-20T12:50:49;14.98;;;3.60;;
29854;SDS011;16733;48.738;9.106;2022-12-20T12:53:19;10.50;;;3.00;;
29854;SDS011;16733;48.738;9.106;2022-12-20T12:55:46;7.95;;;2.80;;
29854;SDS011;16733;48.738;9.106;2022-12-20T12:58:14;7.15;;;2.85;;
29854;SDS011;16733;48.738;9.106;2022-12-20T13:16:48;5.53;;;2.25;;
29854;SDS011;16733;48.738;9.106;2022-12-20T13:19:35;2.13;;;1.42;;
29854;SDS011;16733;48.738;9.106;2022-12-20T13:27:15;5.10;;;2.33;;
29854;SDS011;16733;48.738;9.106;2022-12-20T13:40:37;2.63;;;1.33;;
29854;SDS011;16733;48.738;9.106;2022-12-20T13:51:16;4.00;;;2.15;;
29854;SDS011;16733;48.738;9.106;2022-12-20T13:53:49;18.23;;;3.63;;
29854;SDS011;16733;48.738;9.106;2022-12-20T13:58:54;14.05;;;3.95;;
29854;SDS011;16733;48.738;9.106;2022-12-20T14:01:27;10.30;;;3.22;;
29854;SDS011;16733;48.738;9.106;2022-12-20T14:03:52;10.70;;;3.55;;
29854;SDS011;16733;48.738;9.106;2022-12-20T14:06:19;10.90;;;4.25;;
29854;SDS011;16733;48.738;9.106;2022-12-20T14:08:47;13.45;;;3.10;;
29854;SDS011;16733;48.738;9.106;2022-12-20T14:13:56;4.60;;;2.40;;
29854;SDS011;16733;48.738;9.106;2022-12-20T14:16:24;25.92;;;5.90;;
29854;SDS011;16733;48.738;9.106;2022-12-20T14:19:05;33.05;;;6.72;;
29854;SDS011;16733;48.738;9.106;2022-12-20T14:21:45;15.35;;;4.68;;
29854;SDS011;16733;48.738;9.106;2022-12-20T14:24:13;10.25;;;4.15;;
29854;SDS011;16733;48.738;9.106;2022-12-20T14:26:46;7.32;;;3.03;;
29854;SDS011;16733;48.738;9.106;2022-12-20T14:29:16;5.57;;;2.75;;
29854;SDS011;16733;48.738;9.106;2022-12-20T14:31:45;5.57;;;2.78;;
29854;SDS011;16733;48.738;9.106;2022-12-20T14:34:25;9.82;;;4.07;;
29854;SDS011;16733;48.738;9.106;2022-12-20T14:37:16;8.43;;;4.45;;
29854;SDS011;16733;48.738;9.106;2022-12-20T14:39:54;10.35;;;3.22;;
29854;SDS011;16733;48.738;9.106;2022-12-20T14:42:21;6.78;;;3.05;;
29854;SDS011;16733;48.738;9.106;2022-12-20T14:44:46;7.13;;;3.00;;
29854;SDS011;16733;48.738;9.106;2022-12-20T14:47:16;5.70;;;3.20;;
29854;SDS011;16733;48.738;9.106;2022-12-20T14:49:51;5.97;;;3.10;;
29854;SDS011;16733;48.738;9.106;2022-12-20T14:55:06;7.90;;;3.28;;
29854;SDS011;16733;48.738;9.106;2022-12-20T14:57:45;11.40;;;5.43;;
29854;SDS011;16733;48.738;9.106;2022-12-20T15:16:11;10.40;;;4.10;;
29854;SDS011;16733;48.738;9.106;2022-12-20T15:18:44;12.63;;;3.15;;
29854;SDS011;16733;48.738;9.106;2022-12-20T15:21:14;10.35;;;3.63;;
29854;SDS011;16733;48.738;9.106;2022-12-20T15:23:47;7.20;;;3.67;;
29854;SDS011;16733;48.738;9.106;2022-12-20T15:26:19;6.82;;;3.75;;
29854;SDS011;16733;48.738;9.106;2022-12-20T15:28:46;6.03;;;3.45;;
29854;SDS011;16733;48.738;9.106;2022-12-20T15:31:13;13.10;;;3.70;;
29854;SDS011;16733;48.738;9.106;2022-12-20T15:33:40;7.95;;;3.30;;
29854;SDS011;16733;48.738;9.106;2022-12-20T15:36:11;7.03;;;3.60;;
29854;SDS011;16733;48.738;9.106;2022-12-20T15:38:46;11.90;;;4.53;;
29854;SDS011;16733;48.738;9.106;2022-12-20T15:43:43;9.48;;;4.68;;
29854;SDS011;16733;48.738;9.106;2022-12-20T15:46:09;7.07;;;4.28;;
29854;SDS011;16733;48.738;9.106;2022-12-20T15:48:35;6.93;;;3.58;;
29854;SDS011;16733;48.738;9.106;2022-12-20T15:51:00;4.47;;;2.90;;
29854;SDS011;16733;48.738;9.106;2022-12-20T15:53:36;4.35;;;2.20;;
29854;SDS011;16733;48.738;9.106;2022-12-20T15:56:02;6.97;;;3.08;;
29854;SDS011;16733;48.738;9.106;2022-12-20T15:58:27;12.13;;;3.92;;
29854;SDS011;16733;48.738;9.106;2022-12-20T16:00:57;7.15;;;3.33;;
29854;SDS011;16733;48.738;9.106;2022-12-20T16:03:28;4.20;;;2.42;;
29854;SDS011;16733;48.738;9.106;2022-12-20T16:05:55;8.32;;;4.18;;
29854;SDS011;16733;48.738;9.106;2022-12-20T16:08:21;11.25;;;4.53;;
29854;SDS011;16733;48.738;9.106;2022-12-20T16:10:47;8.90;;;4.82;;
29854;SDS011;16733;48.738;9.106;2022-12-20T16:13:16;10.85;;;4.32;;
29854;SDS011;16733;48.738;9.106;2022-12-20T16:15:49;9.45;;;4.03;;
29854;SDS011;16733;48.738;9.106;2022-12-20T16:18:15;8.63;;;3.92;;
29854;SDS011;16733;48.738;9.106;2022-12-20T16:20:41;9.10;;;3.60;;
29854;SDS011;16733;48.738;9.106;2022-12-20T16:23:15;5.90;;;3.50;;
29854;SDS011;16733;48.738;9.106;2022-12-20T16:25:42;11.05;;;5.03;;
29854;SDS011;16733;48.738;9.106;2022-12-20T16:28:08;7.63;;;3.10;;
29854;SDS011;16733;48.738;9.106;2022-12-20T16:30:34;9.07;;;4.38;;
29854;SDS011;16733;48.738;9.106;2022-12-20T16:33:01;6.97;;;3.20;;
29854;SDS011;16733;48.738;9.106;2022-12-20T16:35:28;10.43;;;3.10;;
29854;SDS011;16733;48.738;9.106;2022-12-20T16:37:56;5.15;;;3.10;;
29854;SDS011;16733;48.738;9.106;2022-12-20T16:40:24;5.57;;;2.30;;
29854;SDS011;16733;48.738;9.106;2022-12-20T16:42:52;3.97;;;2.60;;
29854;SDS011;16733;48.738;9.106;2022-12-20T16:45:20;5.55;;;2.20;;
29854;SDS011;16733;48.738;9.106;2022-12-20T16:47:47;5.78;;;2.47;;
29854;SDS011;16733;48.738;9.106;2022-12-20T16:50:14;11.95;;;6.00;;
29854;SDS011;16733;48.738;9.106;2022-12-20T16:52:40;8.27;;;4.38;;
29854;SDS011;16733;48.738;9.106;2022-12-20T16:55:09;5.40;;;1.90;;
29854;SDS011;16733;48.738;9.106;2022-12-20T16:57:39;6.70;;;2.45;;
29854;SDS011;16733;48.738;9.106;2022-12-20T17:00:05;3.53;;;2.00;;
29854;SDS011;16733;48.738;9.106;2022-12-20T17:02:32;3.88;;;1.50;;
29854;SDS011;16733;48.738;9.106;2022-12-20T17:04:58;3.38;;;1.73;;
29854;SDS011;16733;48.738;9.106;2022-12-20T17:07:24;4.38;;;1.63;;
29854;SDS011;16733;48.738;9.106;2022-12-20T17:09:50;4.93;;;1.65;;
29854;SDS011;16733;48.738;9.106;2022-12-20T17:12:16;2.67;;;1.30;;
29854;SDS011;16733;48.738;9.106;2022-12-20T17:14:44;5.45;;;1.80;;
29854;SDS011;16733;48.738;9.106;2022-12-20T17:17:10;7.32;;;2.60;;
29854;SDS011;16733;48.738;9.106;2022-12-20T17:19:36;2.90;;;1.85;;
29854;SDS011;16733;48.738;9.106;2022-12-20T17:22:02;5.50;;;2.20;;
29854;SDS011;16733;48.738;9.106;2022-12-20T17:24:28;3.22;;;1.98;;
29854;SDS011;16733;48.738;9.106;2022-12-20T17:26:54;4.72;;;2.20;;
29854;SDS011;16733;48.738;9.106;2022-12-20T17:29:19;3.92;;;1.85;;
29854;SDS011;16733;48.738;9.106;2022-12-20T17:31:46;7.30;;;2.13;;
29854;SDS011;16733;48.738;9.106;2022-12-20T17:34:16;4.75;;;1.88;;
29854;SDS011;16733;48.738;9.106;2022-12-20T17:36:42;6.25;;;2.70;;
29854;SDS011;16733;48.738;9.106;2022-12-20T17:39:09;4.88;;;3.00;;
29854;SDS011;16733;48.738;9.106;2022-12-20T17:41:35;7.35;;;4.00;;
29854;SDS011;16733;48.738;9.106;2022-12-20T17:44:01;8.75;;;4.28;;
29854;SDS011;16733;48.738;9.106;2022-12-20T17:46:27;11.88;;;5.72;;